Time;durP1;ratioP1;P1;durP2;ratioP2;P2;SDS_P1;SDS_P2;PMS_P1;PMS_P2;Temp;Humidity;BMP_temperature;BMP_pressure;BME280_temperature;BME280_humidity;BME280_pressure;Samples;Min_cycle;Max_cycle;Signal;HPM_P1;HPM_P2
2022/02/10 00:07:58;;;;;;;5.70;5.25;;;;;;;;;;6149513;23;20531;-87
2022/02/10 00:13:36;;;;;;;4.32;4.03;;;;;;;;;;6177482;23;20025;-87
2022/02/10 00:16:14;;;;;;;5.47;4.13;;;;;;;;;;6149368;23;20029;-87
2022/02/10 00:21:47;;;;;;;7.45;5.60;;;;;;;;;;6149118;23;20036;-87
2022/02/10 00:35:55;;;;;;;28.27;8.15;;;;;;;;;;6146923;23;20025;-87
2022/02/10 00:38:28;;;;;;;7.40;6.70;;;;;;;;;;6126886;23;20218;-86
2022/02/10 00:40:57;;;;;;;5.50;4.97;;;;;;;;;;6140990;23;20022;-87
2022/02/10 00:43:25;;;;;;;6.63;4.78;;;;;;;;;;6124136;23;20018;-87
2022/02/10 00:45:54;;;;;;;7.22;5.50;;;;;;;;;;6127567;23;20398;-87
2022/02/10 00:48:24;;;;;;;6.68;6.03;;;;;;;;;;6142527;23;20034;-87
2022/02/10 00:50:53;;;;;;;4.45;3.80;;;;;;;;;;6127288;23;20018;-87
2022/02/10 00:53:30;;;;;;;5.63;5.03;;;;;;;;;;6114477;23;20025;-87
2022/02/10 00:55:58;;;;;;;9.88;5.30;;;;;;;;;;6146421;23;20331;-86
2022/02/10 00:58:30;;;;;;;6.72;6.10;;;;;;;;;;6128461;23;20045;-87
2022/02/10 01:31:10;;;;;;;2.95;2.70;;;;;;;;;;6170067;23;20036;-86
2022/02/10 01:33:41;;;;;;;3.97;3.58;;;;;;;;;;6188637;23;20013;-86
2022/02/10 01:36:12;;;;;;;4.18;3.88;;;;;;;;;;6151158;23;20033;-87
2022/02/10 01:38:48;;;;;;;5.70;5.28;;;;;;;;;;6151457;23;20021;-87
2022/02/10 01:58:06;;;;;;;4.15;3.35;;;;;;;;;;6184209;23;20052;-87
2022/02/10 02:03:48;;;;;;;5.10;4.63;;;;;;;;;;6056720;23;20343;-86
2022/02/10 02:06:24;;;;;;;4.05;3.75;;;;;;;;;;6042814;23;20015;-87
2022/02/10 02:08:59;;;;;;;4.90;3.35;;;;;;;;;;6099975;23;20044;-87
2022/02/10 02:11:28;;;;;;;4.75;4.45;;;;;;;;;;6125576;23;20494;-86
2022/02/10 02:13:56;;;;;;;3.20;3.00;;;;;;;;;;6186543;23;20013;-87
2022/02/10 02:16:32;;;;;;;3.75;3.28;;;;;;;;;;6101501;23;20028;-87
2022/02/10 02:19:02;;;;;;;2.67;2.55;;;;;;;;;;6159336;23;20021;-87
2022/02/10 02:21:32;;;;;;;4.50;2.67;;;;;;;;;;6126651;23;20017;-86
2022/02/10 02:24:06;;;;;;;3.30;2.55;;;;;;;;;;6155572;23;20056;-87
2022/02/10 02:26:37;;;;;;;4.13;3.55;;;;;;;;;;6187521;23;20024;-87
2022/02/10 02:29:11;;;;;;;5.72;3.75;;;;;;;;;;6176300;23;20036;-87
2022/02/10 02:31:52;;;;;;;2.42;2.25;;;;;;;;;;6100558;23;20028;-87
2022/02/10 02:37:33;;;;;;;3.30;3.10;;;;;;;;;;6178014;23;20028;-87
2022/02/10 03:05:56;;;;;;;5.88;4.00;;;;;;;;;;6136664;23;20057;-87
2022/02/10 03:08:25;;;;;;;;;;;;;;;;;;6154203;23;20028;-86
2022/02/10 03:11:02;;;;;;;2.35;2.10;;;;;;;;;;6160230;23;20271;-86
2022/02/10 03:13:36;;;;;;;2.00;1.90;;;;;;;;;;6147747;23;20376;-87
2022/02/10 03:16:27;;;;;;;2.10;2.00;;;;;;;;;;6155657;23;20020;-87
2022/02/10 03:19:16;;;;;;;2.22;2.10;;;;;;;;;;6185792;23;20327;-86
2022/02/10 04:12:57;;;;;;;2.80;2.60;;;;;;;;;;6181980;23;20032;-86
2022/02/10 04:15:34;;;;;;;3.65;3.33;;;;;;;;;;6156532;23;20551;-86
2022/02/10 04:17:57;;;;;;;2.67;2.45;;;;;;;;;;6129833;23;20031;-87
2022/02/10 04:20:46;;;;;;;4.30;2.75;;;;;;;;;;6175510;23;20740;-86
2022/02/10 04:29:00;;;;;;;2.53;2.33;;;;;;;;;;6182357;23;20453;-87
2022/02/10 04:53:31;;;;;;;2.58;2.47;;;;;;;;;;6185746;23;20017;-87
2022/02/10 04:56:39;;;;;;;3.53;3.33;;;;;;;;;;6180695;23;20033;-87
2022/02/10 05:34:10;;;;;;;2.28;2.17;;;;;;;;;;6055783;23;20022;-86
2022/02/10 05:36:40;;;;;;;5.82;3.70;;;;;;;;;;6154377;23;20357;-86
2022/02/10 05:39:15;;;;;;;4.10;3.58;;;;;;;;;;6183300;23;20017;-86
2022/02/10 05:42:18;;;;;;;3.17;2.97;;;;;;;;;;6186357;23;20016;-87
2022/02/10 05:44:57;;;;;;;3.50;3.20;;;;;;;;;;6176431;23;20033;-87
2022/02/10 05:47:55;;;;;;;5.45;5.03;;;;;;;;;;6149318;23;20021;-88
2022/02/10 06:55:25;;;;;;;3.20;2.17;;;;;;;;;;6127227;23;20021;-85
2022/02/10 07:06:25;;;;;;;2.13;1.83;;;;;;;;;;6187038;23;20039;-85
2022/02/10 07:54:18;;;;;;;4.32;2.15;;;;;;;;;;5958802;24;20028;-87
2022/02/10 07:58:31;;;;;;;2.45;2.25;;;;;;;;;;5869076;24;20031;-86
2022/02/10 08:04:29;;;;;;;2.33;2.13;;;;;;;;;;6070044;23;20022;-86
2022/02/10 08:49:39;;;;;;;2.47;2.20;;;;;;;;;;6177557;23;20649;-86
2022/02/10 09:02:27;;;;;;;2.10;1.95;;;;;;;;;;6156302;23;20013;-83
2022/02/10 09:15:57;;;;;;;3.47;2.95;;;;;;;;;;6152326;23;20033;-84
2022/02/10 09:21:38;;;;;;;2.45;2.25;;;;;;;;;;6148619;23;20022;-83
2022/02/10 10:02:55;;;;;;;1.95;1.63;;;;;;;;;;6146454;23;20021;-83
2022/02/10 10:11:30;;;;;;;4.28;2.30;;;;;;;;;;6149103;23;20021;-86
2022/02/10 10:19:40;;;;;;;4.05;2.33;;;;;;;;;;6156825;23;20024;-84
2022/02/10 11:00:29;;;;;;;4.17;1.50;;;;;;;;;;6115531;23;20028;-85
2022/02/10 11:41:43;;;;;;;5.68;2.97;;;;;;;;;;6033964;23;20372;-89
2022/02/10 13:29:37;;;;;;;2.13;1.63;;;;;;;;;;6158819;23;20033;-84
2022/02/10 14:13:31;;;;;;;3.33;1.67;;;;;;;;;;6127789;23;20029;-85
2022/02/10 14:18:54;;;;;;;1.40;1.30;;;;;;;;;;6188930;23;20020;-85
2022/02/10 14:21:31;;;;;;;2.45;1.77;;;;;;;;;;6178664;23;20028;-86
2022/02/10 14:26:36;;;;;;;2.72;1.80;;;;;;;;;;6189188;23;20554;-86
2022/02/10 14:29:04;;;;;;;2.47;1.52;;;;;;;;;;6126459;23;20028;-86
2022/02/10 14:31:32;;;;;;;3.53;1.60;;;;;;;;;;6122567;23;20420;-86
2022/02/10 14:34:01;;;;;;;7.40;2.63;;;;;;;;;;6157609;23;20433;-86
2022/02/10 14:36:36;;;;;;;1.60;1.50;;;;;;;;;;6151663;23;20036;-87
2022/02/10 14:39:29;;;;;;;2.30;1.52;;;;;;;;;;6157239;23;20333;-88
2022/02/10 14:42:53;;;;;;;3.55;3.10;;;;;;;;;;6159318;23;20017;-86
2022/02/10 16:19:26;;;;;;;1.77;1.67;;;;;;;;;;6158712;23;20040;-82
2022/02/10 16:22:10;;;;;;;2.97;2.55;;;;;;;;;;6127403;23;20021;-82
2022/02/10 16:24:50;;;;;;;3.65;3.05;;;;;;;;;;6126388;23;20033;-83
2022/02/10 16:27:24;;;;;;;2.63;2.42;;;;;;;;;;6160202;23;20032;-83
2022/02/10 16:29:57;;;;;;;27.50;5.22;;;;;;;;;;6160998;23;20024;-82
2022/02/10 16:32:31;;;;;;;5.55;2.75;;;;;;;;;;6178911;23;20017;-82
2022/02/10 16:35:03;;;;;;;2.33;2.15;;;;;;;;;;6187212;23;20685;-82
2022/02/10 16:37:37;;;;;;;5.97;3.35;;;;;;;;;;6188459;23;20013;-82
2022/02/10 16:40:06;;;;;;;3.45;2.97;;;;;;;;;;6150444;23;20360;-82
2022/02/10 16:42:36;;;;;;;5.13;4.82;;;;;;;;;;6151364;23;20025;-82
2022/02/10 16:45:04;;;;;;;6.32;2.35;;;;;;;;;;6125398;23;20041;-87
2022/02/10 16:47:44;;;;;;;4.07;3.67;;;;;;;;;;6129124;23;20056;-87
2022/02/10 16:50:50;;;;;;;2.33;2.13;;;;;;;;;;6127422;23;20021;-87
2022/02/10 16:53:25;;;;;;;2.53;2.33;;;;;;;;;;6125906;23;20025;-87
2022/02/10 16:56:19;;;;;;;6.72;3.38;;;;;;;;;;6152443;23;20025;-87
2022/02/10 17:05:45;;;;;;;4.25;2.22;;;;;;;;;;6162641;23;20017;-87
2022/02/10 18:01:35;;;;;;;3.83;3.53;;;;;;;;;;5944778;23;20034;-86
2022/02/10 18:04:10;;;;;;;12.50;3.08;;;;;;;;;;6054252;23;20401;-86
2022/02/10 18:06:56;;;;;;;;;;;;;;;;;;;;;
2022/02/10 18:13:44;;;;;;;5.13;2.97;;;;;;;;;;6088557;23;20841;-87
2022/02/10 18:16:53;;;;;;;3.67;2.45;;;;;;;;;;6101670;23;20049;-87
2022/02/10 19:11:22;;;;;;;10.73;5.60;;;;;;;;;;6095214;23;20032;-86
2022/02/10 19:13:53;;;;;;;5.55;4.93;;;;;;;;;;6130260;23;20028;-86
2022/02/10 19:16:23;;;;;;;7.95;5.72;;;;;;;;;;6149384;23;20053;-84
2022/02/10 19:18:53;;;;;;;5.50;4.53;;;;;;;;;;6096488;23;20017;-86
2022/02/10 19:21:21;;;;;;;6.65;4.82;;;;;;;;;;6071631;23;20253;-86
2022/02/10 19:23:50;;;;;;;7.13;4.10;;;;;;;;;;6070556;23;20039;-86
2022/02/10 19:26:18;;;;;;;7.00;5.10;;;;;;;;;;6155082;23;20024;-86
2022/02/10 19:28:47;;;;;;;40.55;9.00;;;;;;;;;;6121929;23;20022;-86
2022/02/10 19:31:20;;;;;;;9.18;6.13;;;;;;;;;;6072569;23;20025;-86
2022/02/10 19:33:51;;;;;;;7.68;5.90;;;;;;;;;;6073598;23;20014;-84
2022/02/10 19:36:21;;;;;;;5.47;4.57;;;;;;;;;;6071888;23;20042;-84
2022/02/10 19:38:54;;;;;;;7.25;6.15;;;;;;;;;;6073302;23;20681;-84
2022/02/10 19:41:30;;;;;;;7.03;4.65;;;;;;;;;;6120888;23;20334;-85
2022/02/10 19:44:04;;;;;;;4.47;4.07;;;;;;;;;;6072315;23;20026;-84
2022/02/10 19:46:38;;;;;;;4.22;3.83;;;;;;;;;;6097699;23;20021;-84
2022/02/10 19:49:07;;;;;;;5.50;5.10;;;;;;;;;;6122277;23;20044;-85
2022/02/10 19:51:36;;;;;;;8.38;4.82;;;;;;;;;;6144260;23;20025;-84
2022/02/10 19:54:05;;;;;;;5.72;4.93;;;;;;;;;;6155418;23;20028;-85
2022/02/10 19:56:38;;;;;;;6.82;4.72;;;;;;;;;;6121847;23;20760;-82
2022/02/10 19:59:08;;;;;;;6.53;5.30;;;;;;;;;;6152313;23;20835;-83
2022/02/10 20:01:37;;;;;;;5.18;4.25;;;;;;;;;;6154054;23;20017;-82
2022/02/10 20:04:09;;;;;;;6.55;4.35;;;;;;;;;;6157886;23;20044;-81
2022/02/10 20:06:39;;;;;;;4.68;4.28;;;;;;;;;;6159588;23;20670;-81
2022/02/10 20:09:13;;;;;;;6.43;3.93;;;;;;;;;;6176878;23;20384;-81
2022/02/10 20:11:51;;;;;;;8.15;4.32;;;;;;;;;;6183482;23;20183;-81
2022/02/10 20:14:21;;;;;;;8.18;5.35;;;;;;;;;;6186903;23;20017;-82
2022/02/10 20:16:50;;;;;;;10.95;4.28;;;;;;;;;;6178981;23;20029;-82
2022/02/10 20:19:18;;;;;;;6.82;5.70;;;;;;;;;;6185027;23;20620;-81
2022/02/10 20:21:46;;;;;;;7.95;4.25;;;;;;;;;;6187707;23;20017;-82
2022/02/10 20:24:14;;;;;;;7.57;4.90;;;;;;;;;;6180988;23;20029;-82
2022/02/10 20:26:45;;;;;;;7.10;4.68;;;;;;;;;;6187191;23;20013;-81
2022/02/10 20:29:17;;;;;;;6.47;3.78;;;;;;;;;;6175679;23;20036;-81
2022/02/10 20:31:45;;;;;;;9.00;5.88;;;;;;;;;;6183328;23;20025;-81
2022/02/10 20:34:15;;;;;;;7.20;6.40;;;;;;;;;;6186658;23;20456;-81
2022/02/10 20:36:50;;;;;;;10.32;5.93;;;;;;;;;;6176708;23;20064;-81
2022/02/10 20:39:24;;;;;;;4.95;4.45;;;;;;;;;;6184637;23;20029;-83
2022/02/10 20:42:01;;;;;;;4.53;4.13;;;;;;;;;;6186990;23;20444;-81
2022/02/10 20:44:34;;;;;;;10.65;4.22;;;;;;;;;;6176163;23;20473;-82
2022/02/10 20:47:02;;;;;;;5.35;4.70;;;;;;;;;;6186182;23;20332;-82
2022/02/10 20:49:30;;;;;;;5.88;5.32;;;;;;;;;;6186841;23;20013;-82
2022/02/10 20:51:58;;;;;;;10.98;5.80;;;;;;;;;;6182468;23;20025;-82
2022/02/10 20:54:27;;;;;;;5.43;4.78;;;;;;;;;;6187199;23;20377;-82
2022/02/10 20:56:56;;;;;;;14.93;5.93;;;;;;;;;;6149678;23;20025;-82
2022/02/10 20:59:33;;;;;;;6.60;5.00;;;;;;;;;;6183240;23;20025;-82
2022/02/10 21:02:09;;;;;;;9.70;6.30;;;;;;;;;;6123253;23;20021;-82
2022/02/10 21:04:43;;;;;;;13.43;6.07;;;;;;;;;;6151520;23;20029;-82
2022/02/10 21:07:21;;;;;;;7.82;6.00;;;;;;;;;;6184956;23;20574;-82
2022/02/10 21:09:56;;;;;;;6.53;4.80;;;;;;;;;;6160596;23;20020;-82
2022/02/10 21:12:29;;;;;;;7.88;7.18;;;;;;;;;;6154292;23;20025;-82
2022/02/10 21:14:57;;;;;;;7.22;4.25;;;;;;;;;;6187930;23;20025;-82
2022/02/10 21:17:27;;;;;;;5.97;5.43;;;;;;;;;;6177948;23;20032;-82
2022/02/10 21:20:07;;;;;;;6.45;4.82;;;;;;;;;;6184175;23;20033;-82
2022/02/10 21:22:44;;;;;;;14.18;6.88;;;;;;;;;;6188726;23;20017;-82
2022/02/10 21:25:20;;;;;;;10.48;5.80;;;;;;;;;;6179190;23;20029;-82
2022/02/10 21:27:50;;;;;;;14.23;7.43;;;;;;;;;;6185235;23;20021;-82
2022/02/10 21:30:21;;;;;;;17.55;7.60;;;;;;;;;;6188653;23;20017;-82
2022/02/10 21:32:55;;;;;;;8.52;5.63;;;;;;;;;;6179577;23;20032;-82
2022/02/10 21:40:58;;;;;;;8.30;5.70;;;;;;;;;;6154144;23;20039;-82
2022/02/10 21:44:36;;;;;;;5.57;5.03;;;;;;;;;;6178050;23;20029;-82
2022/02/10 22:16:41;;;;;;;3.88;3.58;;;;;;;;;;6127083;23;20021;-82
2022/02/10 22:19:23;;;;;;;7.55;4.97;;;;;;;;;;6126836;23;20021;-82
2022/02/10 22:21:57;;;;;;;4.00;3.63;;;;;;;;;;6138007;23;20021;-82
2022/02/10 22:24:26;;;;;;;22.02;6.15;;;;;;;;;;6182078;23;20028;-82
2022/02/10 22:26:54;;;;;;;4.20;3.75;;;;;;;;;;6162615;23;20028;-82
2022/02/10 22:29:33;;;;;;;6.75;3.92;;;;;;;;;;6177004;23;20489;-82
2022/02/10 22:32:14;;;;;;;12.23;5.93;;;;;;;;;;6183564;23;20681;-82
2022/02/10 22:34:43;;;;;;;5.15;4.55;;;;;;;;;;6185731;23;20025;-82
2022/02/10 22:37:13;;;;;;;8.27;4.30;;;;;;;;;;6179363;23;20036;-82
2022/02/10 22:39:45;;;;;;;6.25;5.50;;;;;;;;;;6151384;23;20539;-82
2022/02/10 22:42:14;;;;;;;5.32;4.80;;;;;;;;;;6159958;23;20036;-82
2022/02/10 22:44:42;;;;;;;6.15;5.45;;;;;;;;;;6126620;23;20032;-82
2022/02/10 22:47:11;;;;;;;7.57;3.78;;;;;;;;;;6187121;23;20766;-83
2022/02/10 22:49:39;;;;;;;6.78;5.65;;;;;;;;;;6103871;23;20028;-82
2022/02/10 22:52:09;;;;;;;8.20;5.80;;;;;;;;;;6126475;23;20017;-82
2022/02/10 22:54:37;;;;;;;5.03;4.55;;;;;;;;;;6127256;23;20017;-82
2022/02/10 22:57:06;;;;;;;10.40;7.30;;;;;;;;;;6153012;23;20419;-82
2022/02/10 22:59:34;;;;;;;10.00;6.18;;;;;;;;;;6125325;23;20017;-82
2022/02/10 23:02:02;;;;;;;7.40;5.40;;;;;;;;;;6127585;23;20028;-82
2022/02/10 23:04:30;;;;;;;4.88;4.38;;;;;;;;;;6181563;23;20040;-82
2022/02/10 23:07:06;;;;;;;6.45;5.72;;;;;;;;;;6161375;23;20017;-81
2022/02/10 23:12:12;;;;;;;5.03;3.92;;;;;;;;;;6126615;23;20079;-82
2022/02/10 23:14:40;;;;;;;9.68;5.15;;;;;;;;;;6161668;23;20017;-82
2022/02/10 23:17:08;;;;;;;8.15;4.75;;;;;;;;;;6179584;23;20036;-82
2022/02/10 23:19:39;;;;;;;10.98;5.10;;;;;;;;;;6184056;23;20013;-82
2022/02/10 23:22:08;;;;;;;12.95;7.07;;;;;;;;;;6188421;23;20023;-82
2022/02/10 23:24:38;;;;;;;7.97;4.90;;;;;;;;;;6177634;23;20033;-82
2022/02/10 23:27:06;;;;;;;6.40;4.68;;;;;;;;;;6160758;23;20333;-82
2022/02/10 23:29:35;;;;;;;8.00;5.55;;;;;;;;;;6187924;23;20017;-82
2022/02/10 23:32:04;;;;;;;8.07;6.05;;;;;;;;;;6183230;23;20051;-82
2022/02/10 23:34:32;;;;;;;8.80;6.43;;;;;;;;;;6185010;23;20037;-82
2022/02/10 23:37:00;;;;;;;19.77;6.60;;;;;;;;;;6179438;23;20021;-82
2022/02/10 23:39:35;;;;;;;13.25;8.50;;;;;;;;;;6185632;23;20014;-82
2022/02/10 23:42:15;;;;;;;9.07;6.00;;;;;;;;;;6151744;23;20021;-82
2022/02/10 23:44:49;;;;;;;6.32;5.72;;;;;;;;;;6179952;23;20037;-82
2022/02/10 23:47:21;;;;;;;10.00;7.43;;;;;;;;;;6186261;23;20016;-82
2022/02/10 23:49:51;;;;;;;7.47;5.68;;;;;;;;;;6188297;23;20024;-82
2022/02/10 23:52:21;;;;;;;8.88;7.18;;;;;;;;;;6181718;23;20028;-82
2022/02/10 23:54:54;;;;;;;10.57;6.88;;;;;;;;;;6187092;23;20017;-82
